createdAt,value
2022-08-18T00:01:16.396Z,22.37
2022-08-18T00:03:55.672Z,22.32
2022-08-18T00:06:29.505Z,22.26
2022-08-18T00:08:59.707Z,22.22
2022-08-18T00:11:41.275Z,22.19
2022-08-18T00:14:19.705Z,22.15
2022-08-18T00:16:54.320Z,22.11
2022-08-18T00:19:46.515Z,22.07
2022-08-18T00:22:22.370Z,21.96
2022-08-18T00:24:52.947Z,21.89
2022-08-18T00:27:26.191Z,21.85
2022-08-18T00:29:58.477Z,21.80
2022-08-18T00:32:30.829Z,21.76
2022-08-18T00:34:58.973Z,21.72
2022-08-18T00:37:26.878Z,21.67
2022-08-18T00:39:55.106Z,21.63
2022-08-18T00:42:29.007Z,21.59
2022-08-18T00:45:01.282Z,21.56
2022-08-18T00:47:41.788Z,21.53
2022-08-18T00:50:15.193Z,21.51
2022-08-18T00:52:48.865Z,21.48
2022-08-18T00:55:19.518Z,21.46
2022-08-18T00:57:49.605Z,21.42
2022-08-18T01:00:18.231Z,21.39
2022-08-18T01:02:51.662Z,21.37
2022-08-18T01:05:24.006Z,21.34
2022-08-18T01:07:52.511Z,21.31
2022-08-18T01:10:23.055Z,21.27
2022-08-18T01:12:53.367Z,21.23
2022-08-18T01:15:28.517Z,21.18
2022-08-18T01:18:18.707Z,21.14
2022-08-18T01:21:16.638Z,21.12
2022-08-18T01:23:48.733Z,21.08
2022-08-18T01:26:18.113Z,21.06
2022-08-18T01:28:49.465Z,21.05
2022-08-18T01:31:33.244Z,21.03
2022-08-18T01:34:02.037Z,21.01
2022-08-18T01:36:30.005Z,20.99
2022-08-18T01:38:59.356Z,20.96
2022-08-18T01:41:30.824Z,20.91
2022-08-18T01:44:00.676Z,20.87
2022-08-18T01:46:30.316Z,20.84
2022-08-18T01:49:01.157Z,20.81
2022-08-18T01:51:39.584Z,20.76
2022-08-18T01:54:12.910Z,20.71
2022-08-18T01:56:42.409Z,20.68
2022-08-18T01:59:14.908Z,20.64
2022-08-18T02:01:50.459Z,20.58
2022-08-18T02:04:40.802Z,20.51
2022-08-18T02:07:11.446Z,20.47
2022-08-18T02:09:42.278Z,20.43
2022-08-18T02:12:11.464Z,20.35
2022-08-18T02:14:39.989Z,20.35
2022-08-18T02:17:11.084Z,20.31
2022-08-18T02:19:41.247Z,20.28
2022-08-18T02:22:11.045Z,20.23
2022-08-18T02:24:40.439Z,20.21
2022-08-18T02:27:09.596Z,20.18
2022-08-18T02:29:38.082Z,20.16
2022-08-18T02:32:07.377Z,20.14
2022-08-18T02:34:35.731Z,20.11
2022-08-18T02:37:04.483Z,20.10
2022-08-18T02:39:35.691Z,20.08
2022-08-18T02:42:05.752Z,20.07
2022-08-18T02:44:33.686Z,20.06
2022-08-18T02:47:01.798Z,20.04
2022-08-18T02:49:29.739Z,20.03
2022-08-18T02:51:57.591Z,20.01
2022-08-18T02:54:26.005Z,19.97
2022-08-18T02:56:54.081Z,19.92
2022-08-18T02:59:27.555Z,19.90
2022-08-18T03:01:57.317Z,19.88
2022-08-18T03:04:29.839Z,19.85
2022-08-18T03:07:00.767Z,19.80
2022-08-18T03:09:29.746Z,19.76
2022-08-18T03:11:58.329Z,19.73
2022-08-18T03:14:27.984Z,19.70
2022-08-18T03:16:56.176Z,19.67
2022-08-18T03:19:25.545Z,19.66
2022-08-18T03:21:55.038Z,19.62
2022-08-18T03:24:26.502Z,19.61
2022-08-18T03:26:57.382Z,19.60
2022-08-18T03:29:32.011Z,19.60
2022-08-18T03:32:01.481Z,19.59
2022-08-18T03:34:29.739Z,19.59
2022-08-18T03:36:57.717Z,19.60
2022-08-18T03:39:27.835Z,19.59
2022-08-18T03:42:01.112Z,19.60
2022-08-18T03:44:33.410Z,19.60
2022-08-18T03:47:03.780Z,19.59
2022-08-18T03:49:33.888Z,19.60
2022-08-18T03:52:02.673Z,19.60
2022-08-18T03:54:33.706Z,19.60
2022-08-18T03:57:02.149Z,19.62
2022-08-18T03:59:32.146Z,19.62
2022-08-18T04:02:00.343Z,19.66
2022-08-18T04:04:29.618Z,19.67
2022-08-18T04:07:00.099Z,19.67
2022-08-18T04:09:30.879Z,19.67
2022-08-18T04:12:03.567Z,19.69
2022-08-18T04:14:33.149Z,19.69
2022-08-18T04:17:00.991Z,19.71
2022-08-18T04:19:28.847Z,19.72
2022-08-18T04:21:58.172Z,19.72
2022-08-18T04:24:28.119Z,19.73
2022-08-18T04:26:57.608Z,19.72
2022-08-18T04:29:25.939Z,19.74
2022-08-18T04:31:56.170Z,19.76
2022-08-18T04:34:24.193Z,19.78
2022-08-18T04:36:54.042Z,19.79
2022-08-18T04:39:22.951Z,19.82
2022-08-18T04:41:51.730Z,19.83
2022-08-18T04:44:20.223Z,19.86
2022-08-18T04:46:51.059Z,19.88
2022-08-18T04:49:22.350Z,19.92
2022-08-18T04:52:34.278Z,19.95
2022-08-18T04:54:53.469Z,19.99
2022-08-18T04:57:23.032Z,20.02
2022-08-18T04:59:53.514Z,20.04
2022-08-18T05:02:22.699Z,20.08
2022-08-18T05:04:53.610Z,20.11
2022-08-18T05:07:23.697Z,20.13
2022-08-18T05:09:55.125Z,20.14
2022-08-18T05:12:26.024Z,20.17
2022-08-18T05:14:56.976Z,20.22
2022-08-18T05:17:30.247Z,20.24
2022-08-18T05:20:01.441Z,20.27
2022-08-18T05:22:31.861Z,20.31
2022-08-18T05:25:00.958Z,20.35
2022-08-18T05:27:33.323Z,20.41
2022-08-18T05:30:01.190Z,20.45
2022-08-18T05:32:46.478Z,20.50
2022-08-18T05:35:23.304Z,20.55
2022-08-18T05:38:26.879Z,20.62
2022-08-18T05:41:13.808Z,20.65
2022-08-18T05:43:45.990Z,20.68
2022-08-18T05:46:22.935Z,20.71
2022-08-18T05:48:51.579Z,20.75
2022-08-18T05:51:28.612Z,20.77
2022-08-18T05:54:14.568Z,20.81
2022-08-18T05:56:48.284Z,20.86
2022-08-18T05:59:24.790Z,20.89
2022-08-18T06:01:58.011Z,20.92
2022-08-18T06:04:35.373Z,20.94
2022-08-18T06:07:09.900Z,20.97
2022-08-18T06:09:44.577Z,21.00
2022-08-18T06:12:22.746Z,21.02
2022-08-18T06:14:50.902Z,21.05
2022-08-18T06:17:38.253Z,21.09
2022-08-18T06:20:16.065Z,21.14
2022-08-18T06:22:56.560Z,21.18
2022-08-18T06:25:32.860Z,21.20
2022-08-18T06:28:07.127Z,21.23
2022-08-18T06:30:50.694Z,21.27
2022-08-18T06:33:36.980Z,21.34
2022-08-18T06:36:14.385Z,21.38
2022-08-18T06:39:03.034Z,21.41
2022-08-18T06:41:37.916Z,21.48
2022-08-18T06:44:17.335Z,21.54
2022-08-18T06:46:48.363Z,21.59
2022-08-18T06:49:29.485Z,21.65
2022-08-18T06:51:57.313Z,21.71
2022-08-18T06:54:31.293Z,21.75
2022-08-18T06:57:00.013Z,21.78
2022-08-18T06:59:31.910Z,21.81
2022-08-18T07:02:07.285Z,21.83
2022-08-18T07:04:42.632Z,21.90
2022-08-18T07:07:20.680Z,21.96
2022-08-18T07:09:50.431Z,22.01
2022-08-18T07:12:29.060Z,22.08
2022-08-18T07:15:02.968Z,22.15
2022-08-18T07:17:43.185Z,22.21
2022-08-18T07:20:21.567Z,22.28
2022-08-18T07:22:55.069Z,22.36
2022-08-18T07:25:28.405Z,22.42
2022-08-18T07:27:57.258Z,22.51
2022-08-18T07:30:36.039Z,22.58
2022-08-18T07:33:13.128Z,22.68
2022-08-18T07:35:47.852Z,22.78
2022-08-18T07:41:20.305Z,22.96
2022-08-18T07:43:57.993Z,23.07
2022-08-18T07:46:35.401Z,23.17
2022-08-18T07:49:05.501Z,23.27
2022-08-18T07:51:47.376Z,23.36
2022-08-18T07:54:48.230Z,23.43
2022-08-18T07:57:26.146Z,23.53
2022-08-18T08:00:00.401Z,23.64
2022-08-18T08:02:41.829Z,23.73
2022-08-18T08:05:19.145Z,23.80
2022-08-18T08:07:52.429Z,23.86
2022-08-18T08:10:31.446Z,23.93
2022-08-18T08:13:37.046Z,23.96
2022-08-18T08:16:15.140Z,24.01
2022-08-18T08:18:50.888Z,24.05
2022-08-18T08:21:21.086Z,24.11
2022-08-18T08:23:54.222Z,24.18
2022-08-18T08:26:33.730Z,24.26
2022-08-18T08:29:19.411Z,24.38
2022-08-18T08:31:51.996Z,24.53
2022-08-18T08:34:36.388Z,24.69
2022-08-18T08:37:08.435Z,24.86
2022-08-18T08:39:44.156Z,24.95
2022-08-18T08:42:31.045Z,25.04
2022-08-18T08:45:07.947Z,25.10
2022-08-18T08:47:42.076Z,25.16
2022-08-18T08:50:14.018Z,25.21
2022-08-18T08:52:47.402Z,25.32
2022-08-18T08:55:18.782Z,25.48
2022-08-18T08:57:52.523Z,25.61
2022-08-18T09:00:22.019Z,25.75
2022-08-18T09:03:16.214Z,25.90
2022-08-18T09:06:01.915Z,26.04
2022-08-18T09:08:54.795Z,26.17
2022-08-18T09:12:01.370Z,26.17
2022-08-18T09:14:52.245Z,26.16
2022-08-18T09:17:43.138Z,26.23
2022-08-18T09:20:38.167Z,26.31
2022-08-18T09:23:10.186Z,26.38
2022-08-18T09:25:49.104Z,26.40
2022-08-18T09:28:21.567Z,26.45
2022-08-18T09:31:12.102Z,26.56
2022-08-18T09:34:02.578Z,26.77
2022-08-18T09:36:41.924Z,26.92
2022-08-18T09:39:47.989Z,27.07
2022-08-18T09:42:33.962Z,27.18
2022-08-18T09:45:54.651Z,27.23
2022-08-18T09:48:31.641Z,27.29
2022-08-18T09:51:32.318Z,27.35
2022-08-18T09:54:14.319Z,27.48
2022-08-18T09:57:08.612Z,27.61
2022-08-18T10:00:24.367Z,27.65
2022-08-18T10:03:13.816Z,27.53
2022-08-18T10:05:57.466Z,27.47
2022-08-18T10:08:50.258Z,27.56
2022-08-18T10:11:28.480Z,27.55
2022-08-18T10:14:15.770Z,27.59
2022-08-18T10:17:21.304Z,27.71
2022-08-18T10:19:55.963Z,27.94
2022-08-18T10:22:44.307Z,28.22
2022-08-18T10:25:22.631Z,28.39
2022-08-18T10:27:55.377Z,28.61
2022-08-18T10:30:56.754Z,28.65
2022-08-18T10:34:01.775Z,28.63
2022-08-18T10:36:46.854Z,28.62
2022-08-18T10:39:18.358Z,28.66
2022-08-18T10:41:58.344Z,28.72
2022-08-18T10:44:30.862Z,28.75
2022-08-18T10:47:01.448Z,28.72
2022-08-18T10:49:33.219Z,28.70
2022-08-18T10:52:45.221Z,28.69
2022-08-18T10:55:48.060Z,28.69
2022-08-18T10:58:38.666Z,28.70
2022-08-18T11:01:36.842Z,28.62
2022-08-18T11:07:07.862Z,28.54
2022-08-18T11:09:41.597Z,28.50
2022-08-18T11:12:12.962Z,28.50
2022-08-18T11:18:13.137Z,28.44
2022-08-18T11:20:43.229Z,28.42
2022-08-18T11:23:14.900Z,28.31
2022-08-18T11:25:43.112Z,28.29
2022-08-18T11:28:18.254Z,28.21
2022-08-18T11:30:51.601Z,28.22
2022-08-18T11:33:23.051Z,28.40
2022-08-18T11:35:57.812Z,28.60
2022-08-18T11:38:29.591Z,28.80
2022-08-18T11:41:13.772Z,29.17
2022-08-18T11:43:47.599Z,29.58
2022-08-18T11:52:26.262Z,30.29
2022-08-18T11:55:02.375Z,30.27
2022-08-18T11:57:58.565Z,30.24
2022-08-18T12:00:57.326Z,30.29
2022-08-18T12:03:49.575Z,30.24
2022-08-18T12:06:26.582Z,30.09
2022-08-18T12:09:01.866Z,30.00
2022-08-18T12:11:32.396Z,29.94
2022-08-18T12:14:31.322Z,29.77
2022-08-18T12:16:55.417Z,29.68
2022-08-18T12:19:28.078Z,29.65
2022-08-18T12:21:58.401Z,29.58
2022-08-18T12:24:34.233Z,29.43
2022-08-18T12:27:12.247Z,29.34
2022-08-18T12:32:46.833Z,29.21
2022-08-18T12:35:21.916Z,29.17
2022-08-18T12:38:00.011Z,29.15
2022-08-18T12:40:40.123Z,29.03
2022-08-18T12:43:08.283Z,28.98
2022-08-18T12:45:38.134Z,29.00
2022-08-18T12:50:59.826Z,29.07
2022-08-18T12:53:38.191Z,29.13
2022-08-18T12:56:22.377Z,29.16
2022-08-18T12:58:50.968Z,29.27
2022-08-18T13:01:19.131Z,29.28
2022-08-18T13:03:52.671Z,29.28
2022-08-18T13:06:41.207Z,29.30
2022-08-18T13:09:34.298Z,29.23
2022-08-18T13:12:14.744Z,29.30
2022-08-18T13:14:43.390Z,29.37
2022-08-18T13:17:30.133Z,29.37
2022-08-18T13:20:00.420Z,29.37
2022-08-18T13:22:32.100Z,29.40
2022-08-18T13:25:00.463Z,29.49
2022-08-18T13:27:32.788Z,29.59
2022-08-18T13:30:17.061Z,29.63
2022-08-18T13:33:00.563Z,29.64
2022-08-18T13:35:38.221Z,29.56
2022-08-18T13:38:21.220Z,29.46
2022-08-18T13:40:50.769Z,29.42
2022-08-18T13:43:23.573Z,29.38
2022-08-18T13:45:53.502Z,29.36
2022-08-18T13:48:25.771Z,29.35
2022-08-18T13:50:56.276Z,29.32
2022-08-18T13:53:27.595Z,29.27
2022-08-18T13:55:58.145Z,29.24
2022-08-18T13:58:27.007Z,29.23
2022-08-18T14:01:22.812Z,29.26
2022-08-18T14:03:48.155Z,29.20
2022-08-18T14:06:23.014Z,29.16
2022-08-18T14:08:54.704Z,29.09
2022-08-18T14:11:33.014Z,29.05
2022-08-18T14:14:02.842Z,29.01
2022-08-18T14:16:31.590Z,28.94
2022-08-18T14:19:17.874Z,28.95
2022-08-18T14:22:05.765Z,28.92
2022-08-18T14:24:54.414Z,29.00
2022-08-18T14:27:28.381Z,29.06
2022-08-18T14:30:04.854Z,29.11
2022-08-18T14:32:36.130Z,29.06
2022-08-18T14:35:31.778Z,29.02
2022-08-18T14:37:54.633Z,28.97
2022-08-18T14:40:26.375Z,28.90
2022-08-18T14:42:55.489Z,28.86
2022-08-18T14:45:31.347Z,28.84
2022-08-18T14:48:06.695Z,28.78
2022-08-18T14:50:37.045Z,28.76
2022-08-18T14:53:05.334Z,28.73
2022-08-18T14:55:36.039Z,28.65
2022-08-18T14:58:03.982Z,28.58
2022-08-18T15:00:35.512Z,28.53
2022-08-18T15:03:21.525Z,28.53
2022-08-18T15:05:56.525Z,28.56
2022-08-18T15:08:24.860Z,28.51
2022-08-18T15:10:56.439Z,28.44
2022-08-18T15:13:26.480Z,28.35
2022-08-18T15:16:01.914Z,28.28
2022-08-18T15:18:31.403Z,28.24
2022-08-18T15:21:35.315Z,28.16
2022-08-18T15:24:24.101Z,28.14
2022-08-18T15:26:58.203Z,28.13
2022-08-18T15:29:33.396Z,28.09
2022-08-18T15:32:06.158Z,28.04
2022-08-18T15:34:47.153Z,27.97
2022-08-18T15:37:20.400Z,27.95
2022-08-18T15:40:02.565Z,27.93
2022-08-18T15:42:33.184Z,27.88
2022-08-18T15:45:12.075Z,27.85
2022-08-18T15:47:42.076Z,27.77
2022-08-18T15:50:21.801Z,27.71
2022-08-18T15:52:56.126Z,27.63
2022-08-18T15:55:25.692Z,27.62
2022-08-18T15:57:58.139Z,27.56
2022-08-18T16:00:28.308Z,27.53
2022-08-18T16:02:59.911Z,27.50
2022-08-18T16:05:30.422Z,27.48
2022-08-18T16:08:01.135Z,27.45
2022-08-18T16:10:32.743Z,27.40
2022-08-18T16:13:04.454Z,27.35
2022-08-18T16:15:38.171Z,27.30
2022-08-18T16:18:09.104Z,27.24
2022-08-18T16:20:39.109Z,27.18
2022-08-18T16:23:07.616Z,27.12
2022-08-18T16:25:37.992Z,27.08
2022-08-18T16:28:07.900Z,26.98
2022-08-18T16:30:36.587Z,26.93
2022-08-18T16:33:06.578Z,26.87
2022-08-18T16:35:35.565Z,26.81
2022-08-18T16:38:05.530Z,26.78
2022-08-18T16:40:33.748Z,26.72
2022-08-18T16:43:01.656Z,26.66
2022-08-18T16:45:32.072Z,26.61
2022-08-18T16:48:01.347Z,26.57
2022-08-18T16:50:29.773Z,26.54
2022-08-18T16:52:58.736Z,26.45
2022-08-18T16:55:26.632Z,26.39
2022-08-18T16:58:15.446Z,26.33
2022-08-18T17:01:02.943Z,26.25
2022-08-18T17:03:48.392Z,26.17
2022-08-18T17:06:19.728Z,26.13
2022-08-18T17:08:48.335Z,26.10
2022-08-18T17:11:19.857Z,26.04
2022-08-18T17:13:50.101Z,26.00
2022-08-18T17:16:21.160Z,25.95
2022-08-18T17:18:49.322Z,25.91
2022-08-18T17:21:20.115Z,25.88
2022-08-18T17:23:48.707Z,25.85
2022-08-18T17:26:25.404Z,25.82
2022-08-18T17:29:05.655Z,25.80
2022-08-18T17:31:36.440Z,25.78
2022-08-18T17:34:10.049Z,25.75
2022-08-18T17:36:52.495Z,25.71
2022-08-18T17:39:26.440Z,25.67
2022-08-18T17:42:11.708Z,25.65
2022-08-18T17:44:52.142Z,25.59
2022-08-18T17:47:31.219Z,25.53
2022-08-18T17:50:28.022Z,25.51
2022-08-18T17:53:05.471Z,25.49
2022-08-18T17:55:39.245Z,25.44
2022-08-18T17:58:14.434Z,25.41
2022-08-18T18:00:42.735Z,25.37
2022-08-18T18:03:13.427Z,25.35
2022-08-18T18:05:43.934Z,25.30
2022-08-18T18:08:11.845Z,25.27
2022-08-18T18:11:02.187Z,25.24
2022-08-18T18:13:32.986Z,25.17
2022-08-18T18:16:03.865Z,25.14
2022-08-18T18:18:38.637Z,25.10
2022-08-18T18:21:08.913Z,25.06
2022-08-18T18:23:41.200Z,25.02
2022-08-18T18:26:26.141Z,24.98
2022-08-18T18:29:12.635Z,24.98
2022-08-18T18:31:41.863Z,24.96
2022-08-18T18:34:23.566Z,24.93
2022-08-18T18:36:57.397Z,24.89
2022-08-18T18:39:33.179Z,24.85
2022-08-18T18:42:18.041Z,24.82
2022-08-18T18:44:54.029Z,24.78
2022-08-18T18:47:54.449Z,24.75
2022-08-18T18:50:31.128Z,24.69
2022-08-18T18:53:13.992Z,24.64
2022-08-18T18:55:49.058Z,24.61
2022-08-18T18:58:27.455Z,24.58
2022-08-18T19:00:58.525Z,24.54
2022-08-18T19:03:34.281Z,24.51
2022-08-18T19:06:15.465Z,24.47
2022-08-18T19:08:55.202Z,24.44
2022-08-18T19:11:30.290Z,24.40
2022-08-18T19:14:02.714Z,24.39
2022-08-18T19:16:34.918Z,24.37
2022-08-18T19:19:35.828Z,24.35
2022-08-18T19:22:14.117Z,24.31
2022-08-18T19:24:50.781Z,24.30
2022-08-18T19:27:26.324Z,24.27
2022-08-18T19:29:58.896Z,24.28
2022-08-18T19:32:35.463Z,24.27
2022-08-18T19:38:04.246Z,24.22
2022-08-18T19:40:39.638Z,24.16
2022-08-18T19:43:12.807Z,24.11
2022-08-18T19:45:50.832Z,24.04
2022-08-18T19:48:26.661Z,23.99
2022-08-18T19:50:59.634Z,23.95
2022-08-18T19:53:44.450Z,23.88
2022-08-18T19:56:29.108Z,23.82
2022-08-18T19:59:19.594Z,23.74
2022-08-18T20:02:02.581Z,23.63
2022-08-18T20:04:47.565Z,23.53
2022-08-18T20:07:54.850Z,23.42
2022-08-18T20:10:37.610Z,23.28
2022-08-18T20:13:23.369Z,23.13
2022-08-18T20:16:12.088Z,23.01
2022-08-18T20:18:42.763Z,22.89
2022-08-18T20:21:29.903Z,22.79
2022-08-18T20:24:02.294Z,22.71
2022-08-18T20:26:47.714Z,22.62
2022-08-18T20:29:18.240Z,22.56
2022-08-18T20:31:59.779Z,22.52
2022-08-18T20:34:30.098Z,22.49
2022-08-18T20:37:00.610Z,22.48
2022-08-18T20:39:35.948Z,22.46
2022-08-18T20:42:06.721Z,22.45
2022-08-18T20:44:58.714Z,22.42
2022-08-18T20:47:59.252Z,22.39
2022-08-18T20:51:00.016Z,22.33
2022-08-18T20:53:52.485Z,22.31
2022-08-18T20:56:31.379Z,22.26
2022-08-18T20:59:08.534Z,22.22
2022-08-18T21:01:38.682Z,22.19
2022-08-18T21:04:07.151Z,22.16
2022-08-18T21:06:42.093Z,22.12
2022-08-18T21:09:10.480Z,22.08
2022-08-18T21:11:43.038Z,22.05
2022-08-18T21:14:15.099Z,22.02
2022-08-18T21:16:46.007Z,21.97
2022-08-18T21:19:23.578Z,21.96
2022-08-18T21:21:53.407Z,21.93
2022-08-18T21:24:35.755Z,21.92
2022-08-18T21:27:06.649Z,21.88
2022-08-18T21:29:46.942Z,21.84
2022-08-18T21:32:20.273Z,21.81
2022-08-18T21:34:48.677Z,21.79
2022-08-18T21:37:18.346Z,21.78
2022-08-18T21:39:52.461Z,21.74
2022-08-18T21:42:26.125Z,21.71
2022-08-18T21:45:01.123Z,21.69
2022-08-18T21:47:31.668Z,21.66
2022-08-18T21:50:03.485Z,21.65
2022-08-18T21:52:32.314Z,21.63
2022-08-18T21:55:04.333Z,21.60
2022-08-18T21:57:51.997Z,21.58
2022-08-18T22:00:26.901Z,21.56
2022-08-18T22:03:12.584Z,21.53
2022-08-18T22:05:58.287Z,21.53
2022-08-18T22:08:28.311Z,21.49
2022-08-18T22:11:59.871Z,21.49
2022-08-18T22:14:36.193Z,21.47
2022-08-18T22:17:35.158Z,21.47
2022-08-18T22:20:42.233Z,21.47
2022-08-18T22:23:45.957Z,21.47
2022-08-18T22:26:18.844Z,21.46
2022-08-18T22:28:55.016Z,21.47
2022-08-18T22:31:24.026Z,21.46
2022-08-18T22:33:54.250Z,21.46
2022-08-18T22:36:27.623Z,21.45
2022-08-18T22:38:55.993Z,21.45
2022-08-18T22:41:25.354Z,21.44
2022-08-18T22:43:54.862Z,21.45
2022-08-18T22:46:24.769Z,21.46
2022-08-18T22:48:54.342Z,21.47
2022-08-18T22:51:24.815Z,21.47
2022-08-18T22:53:53.227Z,21.48
2022-08-18T22:56:34.630Z,21.46
2022-08-18T22:59:13.606Z,21.45
2022-08-18T23:01:46.263Z,21.44
2022-08-18T23:04:16.931Z,21.44
2022-08-18T23:06:52.251Z,21.44
2022-08-18T23:09:22.190Z,21.44
2022-08-18T23:11:50.848Z,21.43
2022-08-18T23:14:18.963Z,21.43
2022-08-18T23:16:47.287Z,21.42
2022-08-18T23:19:18.987Z,21.40
2022-08-18T23:21:48.493Z,21.40
2022-08-18T23:24:17.888Z,21.38
2022-08-18T23:26:46.154Z,21.37
2022-08-18T23:29:14.779Z,21.38
2022-08-18T23:31:45.296Z,21.37
2022-08-18T23:34:15.359Z,21.37
2022-08-18T23:36:46.247Z,21.35
2022-08-18T23:39:14.664Z,21.34
2022-08-18T23:41:42.738Z,21.33
2022-08-18T23:44:10.693Z,21.33
2022-08-18T23:46:39.514Z,21.33
2022-08-18T23:49:09.232Z,21.32
2022-08-18T23:51:44.249Z,21.32
2022-08-18T23:54:15.204Z,21.29
2022-08-18T23:56:43.058Z,21.27
2022-08-18T23:59:11.580Z,21.25
